CheckWX is a tool to help pilots better visualize weather data.  It is not intended as a substitute for an official pre-flight weather briefing.

22:06:41 UTC

LGAV METAR
Eleftherios Venizelos International Airport
Athens, Greece
Current

17 mins ago

LGAV 222150Z 03021KT CAVOK 20/12 Q1019 NOSIG
Observed
Oct-22 @ 21:50 UTC
Wind
  • 030° at 21 KTS
Visibility
10,000+ meters
Flight Rules
VFR
Cloud Levels
  • Clear skies
Temperature
20°C / 68°F
Dewpoint
12°C / 54°F
Humidity
60%
Altimeter
30.09" Hg
Pressure
1018.92 hPa
Previous

47 mins ago

LGAV 222120Z 02024G34KT CAVOK 20/12 Q1019 NOSIG
Observed
Oct-22 @ 21:20 UTC
Wind
  • 020° at 24 KTS
  • Gusting to 34 KTS
Visibility
10,000+ meters
Flight Rules
VFR
Cloud Levels
  • Clear skies
Temperature
20°C / 68°F
Dewpoint
12°C / 54°F
Humidity
60%
Altimeter
30.09" Hg
Pressure
1018.92 hPa
Previous

1 hour ago

LGAV 222050Z 03024KT CAVOK 20/12 Q1019 NOSIG
Observed
Oct-22 @ 20:50 UTC
Wind
  • 030° at 24 KTS
Visibility
10,000+ meters
Flight Rules
VFR
Cloud Levels
  • Clear skies
Temperature
20°C / 68°F
Dewpoint
12°C / 54°F
Humidity
60%
Altimeter
30.09" Hg
Pressure
1018.92 hPa